sensor_id;sensor_type;location;lat;lon;timestamp;pressure;altitude;pressure_sealevel;temperature;humidity
32761;BME280;19126;47.472;7.850;2022-07-09T00:56:36;97682.06;;;11.63;81.92
32761;BME280;19126;47.472;7.850;2022-07-09T00:59:46;97690.94;;;11.62;82.55
32761;BME280;19126;47.472;7.850;2022-07-09T01:06:41;97688.94;;;11.55;81.83
32761;BME280;19126;47.472;7.850;2022-07-09T01:09:40;97687.41;;;11.53;80.76
32761;BME280;19126;47.472;7.850;2022-07-09T01:16:46;97693.16;;;11.48;84.11
32761;BME280;19126;47.472;7.850;2022-07-09T01:27:42;97684.00;;;11.34;82.66
32761;BME280;19126;47.472;7.850;2022-07-09T01:30:42;97688.75;;;11.31;80.83
32761;BME280;19126;47.472;7.850;2022-07-09T01:33:39;97683.13;;;11.25;82.73
32761;BME280;19126;47.472;7.850;2022-07-09T01:36:19;97685.88;;;11.24;81.53
32761;BME280;19126;47.472;7.850;2022-07-09T01:42:26;97676.97;;;11.17;80.26
32761;BME280;19126;47.472;7.850;2022-07-09T01:48:43;97673.94;;;11.11;79.03
32761;BME280;19126;47.472;7.850;2022-07-09T01:58:50;97675.47;;;10.96;78.66
32761;BME280;19126;47.472;7.850;2022-07-09T02:28:23;97644.16;;;10.66;76.96
32761;BME280;19126;47.472;7.850;2022-07-09T03:09:14;97650.94;;;10.13;68.63
32761;BME280;19126;47.472;7.850;2022-07-09T03:12:16;97648.59;;;10.10;69.11
32761;BME280;19126;47.472;7.850;2022-07-09T03:37:01;97651.81;;;9.94;68.37
32761;BME280;19126;47.472;7.850;2022-07-09T03:40:16;97653.47;;;9.95;66.32
32761;BME280;19126;47.472;7.850;2022-07-09T03:42:59;97650.19;;;9.93;66.33
32761;BME280;19126;47.472;7.850;2022-07-09T04:11:01;97660.03;;;9.81;64.53
32761;BME280;19126;47.472;7.850;2022-07-09T04:16:47;97655.47;;;9.83;62.76
32761;BME280;19126;47.472;7.850;2022-07-09T04:39:38;97671.34;;;9.91;58.08
32761;BME280;19126;47.472;7.850;2022-07-09T04:42:28;97668.72;;;9.91;56.61
32761;BME280;19126;47.472;7.850;2022-07-09T04:49:14;97671.97;;;10.03;58.40
32761;BME280;19126;47.472;7.850;2022-07-09T04:52:09;97667.09;;;10.08;59.31
32761;BME280;19126;47.472;7.850;2022-07-09T04:55:31;97672.22;;;10.10;59.73
32761;BME280;19126;47.472;7.850;2022-07-09T05:01:23;97674.94;;;10.18;60.26
32761;BME280;19126;47.472;7.850;2022-07-09T05:07:39;97674.88;;;10.28;58.47
32761;BME280;19126;47.472;7.850;2022-07-09T05:10:50;97671.53;;;10.36;58.37
32761;BME280;19126;47.472;7.850;2022-07-09T05:20:40;97668.69;;;10.75;54.98
32761;BME280;19126;47.472;7.850;2022-07-09T05:23:33;97680.94;;;11.39;54.15
32761;BME280;19126;47.472;7.850;2022-07-09T05:34:04;97673.59;;;13.56;88.20
32761;BME280;19126;47.472;7.850;2022-07-09T05:37:10;97675.00;;;14.00;100.00
32761;BME280;19126;47.472;7.850;2022-07-09T05:40:17;97674.59;;;14.51;100.00
32761;BME280;19126;47.472;7.850;2022-07-09T06:15:13;97675.72;;;17.79;88.98
32761;BME280;19126;47.472;7.850;2022-07-09T06:18:22;97671.50;;;18.20;89.78
32761;BME280;19126;47.472;7.850;2022-07-09T06:25:10;97676.00;;;18.68;80.52
32761;BME280;19126;47.472;7.850;2022-07-09T09:21:27;97582.19;;;27.24;43.34
32761;BME280;19126;47.472;7.850;2022-07-09T09:23:57;97584.28;;;27.49;44.33
32761;BME280;19126;47.472;7.850;2022-07-09T09:26:27;97582.28;;;27.77;42.55
32761;BME280;19126;47.472;7.850;2022-07-09T09:28:55;97581.25;;;27.45;42.87
32761;BME280;19126;47.472;7.850;2022-07-09T09:31:25;97583.78;;;27.57;46.05
32761;BME280;19126;47.472;7.850;2022-07-09T09:33:55;97573.22;;;27.50;41.43
32761;BME280;19126;47.472;7.850;2022-07-09T09:36:32;97577.41;;;27.74;42.50
32761;BME280;19126;47.472;7.850;2022-07-09T09:39:15;97587.19;;;27.90;44.15
32761;BME280;19126;47.472;7.850;2022-07-09T09:41:44;97576.81;;;27.61;44.96
32761;BME280;19126;47.472;7.850;2022-07-09T09:44:14;97579.00;;;27.70;43.64
32761;BME280;19126;47.472;7.850;2022-07-09T09:46:43;97580.09;;;28.27;42.58
32761;BME280;19126;47.472;7.850;2022-07-09T09:49:13;97579.00;;;28.23;42.03
32761;BME280;19126;47.472;7.850;2022-07-09T09:51:54;97577.50;;;28.00;42.72
32761;BME280;19126;47.472;7.850;2022-07-09T09:54:23;97572.63;;;27.91;43.66
32761;BME280;19126;47.472;7.850;2022-07-09T09:56:51;97569.72;;;27.50;40.04
32761;BME280;19126;47.472;7.850;2022-07-09T09:59:19;97568.78;;;27.77;43.84
32761;BME280;19126;47.472;7.850;2022-07-09T10:01:46;97572.78;;;28.38;46.21
32761;BME280;19126;47.472;7.850;2022-07-09T10:04:14;97560.41;;;28.58;42.94
32761;BME280;19126;47.472;7.850;2022-07-09T10:06:42;97571.53;;;28.77;43.12
32761;BME280;19126;47.472;7.850;2022-07-09T10:09:13;97567.44;;;28.74;42.55
32761;BME280;19126;47.472;7.850;2022-07-09T10:11:43;97554.50;;;29.18;41.54
32761;BME280;19126;47.472;7.850;2022-07-09T10:14:28;97554.22;;;29.24;41.08
32761;BME280;19126;47.472;7.850;2022-07-09T10:16:56;97565.78;;;28.47;39.82
32761;BME280;19126;47.472;7.850;2022-07-09T10:19:28;97575.34;;;28.97;40.26
32761;BME280;19126;47.472;7.850;2022-07-09T10:21:56;97560.97;;;29.06;38.83
32761;BME280;19126;47.472;7.850;2022-07-09T10:24:26;97559.66;;;28.93;39.28
32761;BME280;19126;47.472;7.850;2022-07-09T10:27:03;97555.00;;;28.63;43.74
32761;BME280;19126;47.472;7.850;2022-07-09T10:29:32;97553.13;;;29.41;42.75
32761;BME280;19126;47.472;7.850;2022-07-09T10:32:00;97552.03;;;29.32;38.84
32761;BME280;19126;47.472;7.850;2022-07-09T10:34:56;97553.41;;;28.83;39.14
32761;BME280;19126;47.472;7.850;2022-07-09T10:37:35;97550.38;;;28.37;38.48
32761;BME280;19126;47.472;7.850;2022-07-09T10:40:12;97544.75;;;28.80;45.18
32761;BME280;19126;47.472;7.850;2022-07-09T10:42:41;97533.13;;;29.11;39.47
32761;BME280;19126;47.472;7.850;2022-07-09T10:45:22;97542.78;;;29.64;40.59
32761;BME280;19126;47.472;7.850;2022-07-09T10:47:54;97539.44;;;29.82;39.12
32761;BME280;19126;47.472;7.850;2022-07-09T10:50:21;97528.69;;;29.67;38.95
32761;BME280;19126;47.472;7.850;2022-07-09T10:52:49;97531.22;;;29.22;40.37
32761;BME280;19126;47.472;7.850;2022-07-09T10:55:20;97524.50;;;28.78;39.32
32761;BME280;19126;47.472;7.850;2022-07-09T10:57:47;97530.44;;;28.85;39.99
32761;BME280;19126;47.472;7.850;2022-07-09T11:00:15;97522.84;;;29.13;41.03
32761;BME280;19126;47.472;7.850;2022-07-09T11:02:58;97525.25;;;29.35;41.57
32761;BME280;19126;47.472;7.850;2022-07-09T11:05:27;97519.47;;;28.02;42.15
32761;BME280;19126;47.472;7.850;2022-07-09T11:07:57;97517.69;;;28.49;41.41
32761;BME280;19126;47.472;7.850;2022-07-09T11:10:26;97505.81;;;28.97;44.42
32761;BME280;19126;47.472;7.850;2022-07-09T11:12:54;97509.03;;;29.25;42.05
32761;BME280;19126;47.472;7.850;2022-07-09T11:15:22;97514.44;;;28.58;40.30
32761;BME280;19126;47.472;7.850;2022-07-09T11:18:00;97497.97;;;29.11;39.33
32761;BME280;19126;47.472;7.850;2022-07-09T11:20:28;97496.47;;;29.65;44.90
32761;BME280;19126;47.472;7.850;2022-07-09T11:22:56;97496.03;;;29.98;44.88
32761;BME280;19126;47.472;7.850;2022-07-09T11:25:28;97497.06;;;29.57;39.86
32761;BME280;19126;47.472;7.850;2022-07-09T11:27:56;97499.56;;;29.17;40.43
32761;BME280;19126;47.472;7.850;2022-07-09T11:30:26;97501.75;;;28.48;39.58
32761;BME280;19126;47.472;7.850;2022-07-09T11:32:53;97501.22;;;28.66;38.94
32761;BME280;19126;47.472;7.850;2022-07-09T11:35:29;97492.78;;;28.21;43.38
32761;BME280;19126;47.472;7.850;2022-07-09T11:37:57;97486.75;;;27.93;40.77
32761;BME280;19126;47.472;7.850;2022-07-09T11:40:26;97489.03;;;28.43;42.95
32761;BME280;19126;47.472;7.850;2022-07-09T11:42:54;97479.84;;;29.17;42.84
32761;BME280;19126;47.472;7.850;2022-07-09T11:45:23;97470.59;;;29.38;44.44
32761;BME280;19126;47.472;7.850;2022-07-09T11:48:03;97478.63;;;29.59;40.55
32761;BME280;19126;47.472;7.850;2022-07-09T11:50:31;97472.41;;;29.59;39.57
32761;BME280;19126;47.472;7.850;2022-07-09T11:52:58;97472.47;;;29.98;38.05
32761;BME280;19126;47.472;7.850;2022-07-09T11:55:31;97469.81;;;30.33;42.77
32761;BME280;19126;47.472;7.850;2022-07-09T11:58:05;97466.94;;;30.64;40.14
32761;BME280;19126;47.472;7.850;2022-07-09T12:00:35;97462.34;;;30.54;35.85
32761;BME280;19126;47.472;7.850;2022-07-09T12:03:06;97462.69;;;30.08;35.01
32761;BME280;19126;47.472;7.850;2022-07-09T12:05:35;97456.00;;;29.19;37.78
32761;BME280;19126;47.472;7.850;2022-07-09T12:08:06;97467.38;;;29.10;37.71
32761;BME280;19126;47.472;7.850;2022-07-09T12:10:37;97462.75;;;29.21;40.05
32761;BME280;19126;47.472;7.850;2022-07-09T12:13:06;97468.72;;;29.23;39.35
32761;BME280;19126;47.472;7.850;2022-07-09T12:15:35;97461.19;;;28.94;39.38
32761;BME280;19126;47.472;7.850;2022-07-09T12:18:03;97463.38;;;28.87;39.28
32761;BME280;19126;47.472;7.850;2022-07-09T12:20:31;97459.31;;;28.85;38.37
32761;BME280;19126;47.472;7.850;2022-07-09T12:22:59;97448.97;;;29.07;39.31
32761;BME280;19126;47.472;7.850;2022-07-09T12:25:26;97455.97;;;29.45;43.30
32761;BME280;19126;47.472;7.850;2022-07-09T12:27:54;97461.59;;;29.53;40.83
32761;BME280;19126;47.472;7.850;2022-07-09T12:30:22;97453.66;;;28.81;36.94
32761;BME280;19126;47.472;7.850;2022-07-09T12:32:50;97451.19;;;28.85;38.78
32761;BME280;19126;47.472;7.850;2022-07-09T12:35:17;97447.41;;;28.91;38.31
32761;BME280;19126;47.472;7.850;2022-07-09T12:37:45;97450.13;;;28.44;40.58
32761;BME280;19126;47.472;7.850;2022-07-09T12:40:12;97444.97;;;28.74;41.11
32761;BME280;19126;47.472;7.850;2022-07-09T12:42:40;97447.41;;;28.55;39.90
32761;BME280;19126;47.472;7.850;2022-07-09T12:45:09;97443.59;;;28.76;43.64
32761;BME280;19126;47.472;7.850;2022-07-09T12:47:38;97442.53;;;28.93;39.57
32761;BME280;19126;47.472;7.850;2022-07-09T12:50:06;97432.81;;;28.56;37.51
32761;BME280;19126;47.472;7.850;2022-07-09T12:52:35;97442.28;;;28.32;38.67
32761;BME280;19126;47.472;7.850;2022-07-09T12:55:06;97433.31;;;28.06;41.16
32761;BME280;19126;47.472;7.850;2022-07-09T12:57:33;97440.50;;;27.64;39.88
32761;BME280;19126;47.472;7.850;2022-07-09T13:00:00;97421.38;;;27.71;38.75
32761;BME280;19126;47.472;7.850;2022-07-09T13:02:29;97422.72;;;27.78;40.62
32761;BME280;19126;47.472;7.850;2022-07-09T13:04:56;97431.28;;;27.49;41.06
32761;BME280;19126;47.472;7.850;2022-07-09T13:07:23;97428.13;;;27.78;39.95
32761;BME280;19126;47.472;7.850;2022-07-09T13:09:51;97414.72;;;28.25;38.56
32761;BME280;19126;47.472;7.850;2022-07-09T13:12:19;97414.66;;;29.08;41.16
32761;BME280;19126;47.472;7.850;2022-07-09T13:14:46;97404.06;;;29.22;40.04
32761;BME280;19126;47.472;7.850;2022-07-09T13:17:13;97397.28;;;29.19;38.26
32761;BME280;19126;47.472;7.850;2022-07-09T13:19:42;97397.31;;;29.14;38.31
32761;BME280;19126;47.472;7.850;2022-07-09T13:22:09;97395.69;;;29.13;37.65
32761;BME280;19126;47.472;7.850;2022-07-09T13:24:36;97393.38;;;29.51;38.93
32761;BME280;19126;47.472;7.850;2022-07-09T13:27:04;97400.53;;;29.82;38.99
32761;BME280;19126;47.472;7.850;2022-07-09T13:29:34;97398.00;;;29.96;40.47
32761;BME280;19126;47.472;7.850;2022-07-09T13:32:02;97393.78;;;29.74;40.04
32761;BME280;19126;47.472;7.850;2022-07-09T13:34:29;97397.88;;;30.17;40.60
32761;BME280;19126;47.472;7.850;2022-07-09T13:36:57;97397.13;;;30.11;41.25
32761;BME280;19126;47.472;7.850;2022-07-09T13:39:25;97394.38;;;30.16;39.03
32761;BME280;19126;47.472;7.850;2022-07-09T13:41:52;97394.72;;;30.39;38.93
32761;BME280;19126;47.472;7.850;2022-07-09T13:44:19;97385.56;;;30.30;38.76
32761;BME280;19126;47.472;7.850;2022-07-09T13:46:46;97387.41;;;30.34;38.62
32761;BME280;19126;47.472;7.850;2022-07-09T13:49:13;97387.84;;;30.52;40.21
32761;BME280;19126;47.472;7.850;2022-07-09T13:51:40;97389.13;;;30.60;39.22
32761;BME280;19126;47.472;7.850;2022-07-09T13:54:09;97385.94;;;30.18;37.83
32761;BME280;19126;47.472;7.850;2022-07-09T13:56:36;97384.25;;;29.87;37.26
32761;BME280;19126;47.472;7.850;2022-07-09T13:59:03;97377.66;;;30.04;36.87
32761;BME280;19126;47.472;7.850;2022-07-09T14:01:30;97374.72;;;29.50;38.06
32761;BME280;19126;47.472;7.850;2022-07-09T14:03:58;97379.13;;;29.30;38.39
32761;BME280;19126;47.472;7.850;2022-07-09T14:06:25;97372.19;;;29.64;38.52
32761;BME280;19126;47.472;7.850;2022-07-09T14:08:54;97369.59;;;29.38;39.24
32761;BME280;19126;47.472;7.850;2022-07-09T14:11:22;97367.88;;;29.63;39.84
32761;BME280;19126;47.472;7.850;2022-07-09T14:13:49;97366.56;;;30.00;39.15
32761;BME280;19126;47.472;7.850;2022-07-09T14:16:19;97359.94;;;30.17;40.22
32761;BME280;19126;47.472;7.850;2022-07-09T14:18:46;97373.38;;;29.92;39.29
32761;BME280;19126;47.472;7.850;2022-07-09T14:21:13;97368.78;;;29.88;39.22
32761;BME280;19126;47.472;7.850;2022-07-09T14:23:41;97364.13;;;29.98;40.83
32761;BME280;19126;47.472;7.850;2022-07-09T14:26:13;97357.25;;;30.11;39.97
32761;BME280;19126;47.472;7.850;2022-07-09T14:28:42;97349.97;;;29.67;38.40
32761;BME280;19126;47.472;7.850;2022-07-09T14:31:09;97347.00;;;30.08;38.91
32761;BME280;19126;47.472;7.850;2022-07-09T14:33:36;97340.00;;;29.97;38.33
32761;BME280;19126;47.472;7.850;2022-07-09T14:36:04;97341.81;;;29.72;39.99
32761;BME280;19126;47.472;7.850;2022-07-09T14:38:31;97342.34;;;29.74;39.82
32761;BME280;19126;47.472;7.850;2022-07-09T14:40:59;97346.25;;;29.97;42.15
32761;BME280;19126;47.472;7.850;2022-07-09T14:43:26;97343.28;;;29.99;41.49
32761;BME280;19126;47.472;7.850;2022-07-09T14:45:54;97343.75;;;30.06;39.08
32761;BME280;19126;47.472;7.850;2022-07-09T14:48:21;97342.44;;;30.04;40.76
32761;BME280;19126;47.472;7.850;2022-07-09T14:50:49;97336.56;;;29.91;39.22
32761;BME280;19126;47.472;7.850;2022-07-09T14:53:16;97334.31;;;29.59;39.54
32761;BME280;19126;47.472;7.850;2022-07-09T14:55:43;97328.22;;;29.37;40.46
32761;BME280;19126;47.472;7.850;2022-07-09T14:58:10;97330.44;;;29.75;42.54
32761;BME280;19126;47.472;7.850;2022-07-09T15:00:38;97321.38;;;29.50;39.78
32761;BME280;19126;47.472;7.850;2022-07-09T15:03:06;97317.16;;;29.79;40.32
32761;BME280;19126;47.472;7.850;2022-07-09T15:05:34;97317.59;;;29.51;41.94
32761;BME280;19126;47.472;7.850;2022-07-09T15:08:02;97315.69;;;29.57;41.54
32761;BME280;19126;47.472;7.850;2022-07-09T15:10:29;97312.53;;;29.34;43.00
32761;BME280;19126;47.472;7.850;2022-07-09T15:12:57;97308.81;;;29.25;44.34
32761;BME280;19126;47.472;7.850;2022-07-09T15:15:24;97307.28;;;28.98;40.09
32761;BME280;19126;47.472;7.850;2022-07-09T15:17:51;97317.38;;;28.82;42.90
32761;BME280;19126;47.472;7.850;2022-07-09T15:20:20;97316.53;;;28.81;42.64
32761;BME280;19126;47.472;7.850;2022-07-09T15:22:47;97312.50;;;28.74;44.51
32761;BME280;19126;47.472;7.850;2022-07-09T15:25:15;97302.47;;;28.85;45.50
32761;BME280;19126;47.472;7.850;2022-07-09T15:27:42;97309.53;;;28.80;44.64
32761;BME280;19126;47.472;7.850;2022-07-09T15:30:10;97305.22;;;28.59;45.42
32761;BME280;19126;47.472;7.850;2022-07-09T15:32:37;97296.09;;;28.44;44.22
32761;BME280;19126;47.472;7.850;2022-07-09T15:35:06;97291.53;;;28.03;43.00
32761;BME280;19126;47.472;7.850;2022-07-09T15:37:35;97288.00;;;27.98;45.90
32761;BME280;19126;47.472;7.850;2022-07-09T15:40:03;97282.63;;;27.82;45.36
32761;BME280;19126;47.472;7.850;2022-07-09T15:42:30;97296.66;;;27.58;45.88
32761;BME280;19126;47.472;7.850;2022-07-09T15:44:57;97297.19;;;27.66;47.56
32761;BME280;19126;47.472;7.850;2022-07-09T15:47:24;97302.25;;;27.46;51.26
32761;BME280;19126;47.472;7.850;2022-07-09T15:49:52;97295.50;;;27.28;51.25
32761;BME280;19126;47.472;7.850;2022-07-09T15:52:20;97288.16;;;27.13;50.91
32761;BME280;19126;47.472;7.850;2022-07-09T15:54:48;97292.75;;;27.13;49.78
32761;BME280;19126;47.472;7.850;2022-07-09T15:57:15;97296.50;;;27.06;52.02
32761;BME280;19126;47.472;7.850;2022-07-09T15:59:42;97291.38;;;27.05;52.04
32761;BME280;19126;47.472;7.850;2022-07-09T16:02:10;97291.59;;;26.88;52.10
32761;BME280;19126;47.472;7.850;2022-07-09T16:04:37;97292.94;;;26.90;50.71
32761;BME280;19126;47.472;7.850;2022-07-09T16:07:04;97287.53;;;26.90;50.56
32761;BME280;19126;47.472;7.850;2022-07-09T16:09:31;97285.66;;;26.91;51.14
32761;BME280;19126;47.472;7.850;2022-07-09T16:12:00;97287.28;;;26.87;52.73
32761;BME280;19126;47.472;7.850;2022-07-09T16:14:45;97287.22;;;26.82;53.68
32761;BME280;19126;47.472;7.850;2022-07-09T16:17:12;97286.19;;;26.83;52.00
32761;BME280;19126;47.472;7.850;2022-07-09T16:19:39;97280.38;;;26.63;52.20
32761;BME280;19126;47.472;7.850;2022-07-09T16:22:06;97281.75;;;26.61;56.07
32761;BME280;19126;47.472;7.850;2022-07-09T16:24:34;97282.69;;;26.39;53.37
32761;BME280;19126;47.472;7.850;2022-07-09T16:27:03;97276.75;;;26.42;52.28
32761;BME280;19126;47.472;7.850;2022-07-09T16:29:30;97271.84;;;26.29;56.46
32761;BME280;19126;47.472;7.850;2022-07-09T16:31:57;97269.47;;;26.32;55.27
32761;BME280;19126;47.472;7.850;2022-07-09T16:34:24;97275.09;;;26.31;55.67
32761;BME280;19126;47.472;7.850;2022-07-09T16:36:51;97270.47;;;26.21;54.00
32761;BME280;19126;47.472;7.850;2022-07-09T16:39:19;97262.66;;;26.25;53.46
32761;BME280;19126;47.472;7.850;2022-07-09T16:41:46;97267.75;;;26.16;54.20
32761;BME280;19126;47.472;7.850;2022-07-09T16:44:14;97257.66;;;26.06;54.41
32761;BME280;19126;47.472;7.850;2022-07-09T16:46:43;97253.59;;;25.98;56.27
32761;BME280;19126;47.472;7.850;2022-07-09T16:49:10;97248.94;;;25.88;55.95
32761;BME280;19126;47.472;7.850;2022-07-09T16:51:39;97253.09;;;25.69;57.39
32761;BME280;19126;47.472;7.850;2022-07-09T16:54:06;97249.25;;;25.59;59.78
32761;BME280;19126;47.472;7.850;2022-07-09T16:56:33;97251.84;;;25.49;62.12
32761;BME280;19126;47.472;7.850;2022-07-09T16:59:02;97251.28;;;25.47;57.46
32761;BME280;19126;47.472;7.850;2022-07-09T17:01:31;97248.53;;;25.42;60.65
32761;BME280;19126;47.472;7.850;2022-07-09T17:03:58;97251.78;;;25.44;61.15
32761;BME280;19126;47.472;7.850;2022-07-09T17:06:26;97254.91;;;25.36;61.32
32761;BME280;19126;47.472;7.850;2022-07-09T17:08:53;97257.56;;;25.30;63.30
32761;BME280;19126;47.472;7.850;2022-07-09T17:11:20;97255.16;;;25.07;64.49
32761;BME280;19126;47.472;7.850;2022-07-09T17:13:47;97254.34;;;25.06;63.01
32761;BME280;19126;47.472;7.850;2022-07-09T17:16:15;97252.03;;;24.93;64.38
32761;BME280;19126;47.472;7.850;2022-07-09T17:18:43;97251.63;;;24.79;67.38
32761;BME280;19126;47.472;7.850;2022-07-09T17:21:10;97254.09;;;24.63;67.02
32761;BME280;19126;47.472;7.850;2022-07-09T17:23:38;97254.56;;;24.38;73.78
32761;BME280;19126;47.472;7.850;2022-07-09T17:26:05;97254.28;;;24.34;69.51
32761;BME280;19126;47.472;7.850;2022-07-09T17:28:32;97251.75;;;24.27;67.08
32761;BME280;19126;47.472;7.850;2022-07-09T17:30:59;97250.94;;;24.27;66.88
32761;BME280;19126;47.472;7.850;2022-07-09T17:33:27;97256.81;;;24.24;70.23
32761;BME280;19126;47.472;7.850;2022-07-09T17:35:55;97254.63;;;24.21;71.23
32761;BME280;19126;47.472;7.850;2022-07-09T17:38:23;97252.09;;;24.14;69.26
32761;BME280;19126;47.472;7.850;2022-07-09T17:40:54;97247.28;;;24.16;63.52
32761;BME280;19126;47.472;7.850;2022-07-09T17:43:21;97256.66;;;23.96;68.43
32761;BME280;19126;47.472;7.850;2022-07-09T17:45:48;97254.69;;;23.75;67.72
32761;BME280;19126;47.472;7.850;2022-07-09T17:48:16;97249.97;;;23.65;66.25
32761;BME280;19126;47.472;7.850;2022-07-09T17:50:44;97251.78;;;23.59;67.99
32761;BME280;19126;47.472;7.850;2022-07-09T17:53:12;97252.31;;;23.44;68.66
32761;BME280;19126;47.472;7.850;2022-07-09T17:55:41;97248.41;;;23.35;64.47
32761;BME280;19126;47.472;7.850;2022-07-09T17:58:08;97255.19;;;23.25;66.79
32761;BME280;19126;47.472;7.850;2022-07-09T18:00:38;97249.72;;;23.20;69.37
32761;BME280;19126;47.472;7.850;2022-07-09T18:03:05;97249.78;;;23.08;67.95
32761;BME280;19126;47.472;7.850;2022-07-09T18:05:36;97246.25;;;22.91;71.67
32761;BME280;19126;47.472;7.850;2022-07-09T18:08:03;97248.72;;;22.80;70.90
32761;BME280;19126;47.472;7.850;2022-07-09T18:10:32;97245.28;;;22.56;73.65
32761;BME280;19126;47.472;7.850;2022-07-09T18:12:59;97247.94;;;22.56;71.46
32761;BME280;19126;47.472;7.850;2022-07-09T18:15:27;97250.28;;;22.52;72.31
32761;BME280;19126;47.472;7.850;2022-07-09T18:17:54;97250.84;;;22.43;71.02
32761;BME280;19126;47.472;7.850;2022-07-09T18:20:22;97246.19;;;22.38;71.87
32761;BME280;19126;47.472;7.850;2022-07-09T18:22:49;97244.59;;;22.25;73.50
32761;BME280;19126;47.472;7.850;2022-07-09T18:25:18;97248.88;;;22.14;72.93
32761;BME280;19126;47.472;7.850;2022-07-09T18:27:46;97246.22;;;22.02;73.66
32761;BME280;19126;47.472;7.850;2022-07-09T18:30:13;97249.59;;;21.98;72.58
32761;BME280;19126;47.472;7.850;2022-07-09T18:32:40;97248.56;;;21.87;72.15
32761;BME280;19126;47.472;7.850;2022-07-09T18:35:08;97247.84;;;21.79;70.62
32761;BME280;19126;47.472;7.850;2022-07-09T18:37:35;97243.06;;;21.70;68.32
32761;BME280;19126;47.472;7.850;2022-07-09T18:40:03;97256.88;;;21.66;75.33
32761;BME280;19126;47.472;7.850;2022-07-09T18:42:30;97260.31;;;21.55;71.88
32761;BME280;19126;47.472;7.850;2022-07-09T18:44:59;97265.53;;;21.50;72.67
32761;BME280;19126;47.472;7.850;2022-07-09T18:47:26;97264.38;;;21.46;71.74
32761;BME280;19126;47.472;7.850;2022-07-09T18:49:54;97256.47;;;21.39;76.11
32761;BME280;19126;47.472;7.850;2022-07-09T18:52:21;97255.75;;;21.32;69.41
32761;BME280;19126;47.472;7.850;2022-07-09T18:54:48;97260.84;;;21.33;70.33
32761;BME280;19126;47.472;7.850;2022-07-09T18:57:16;97260.72;;;21.28;73.77
32761;BME280;19126;47.472;7.850;2022-07-09T18:59:43;97258.50;;;21.25;71.71
32761;BME280;19126;47.472;7.850;2022-07-09T19:02:11;97260.44;;;21.18;72.12
32761;BME280;19126;47.472;7.850;2022-07-09T19:04:38;97262.84;;;21.07;74.31
32761;BME280;19126;47.472;7.850;2022-07-09T19:07:06;97261.97;;;20.95;78.96
32761;BME280;19126;47.472;7.850;2022-07-09T19:09:33;97268.88;;;20.84;77.08
32761;BME280;19126;47.472;7.850;2022-07-09T19:12:01;97264.84;;;20.75;77.26
32761;BME280;19126;47.472;7.850;2022-07-09T19:14:28;97258.03;;;20.60;77.36
32761;BME280;19126;47.472;7.850;2022-07-09T19:16:56;97261.44;;;20.49;79.15
32761;BME280;19126;47.472;7.850;2022-07-09T19:19:25;97262.94;;;20.45;79.53
32761;BME280;19126;47.472;7.850;2022-07-09T19:21:52;97271.31;;;20.30;79.34
32761;BME280;19126;47.472;7.850;2022-07-09T19:24:19;97271.03;;;20.13;80.49
32761;BME280;19126;47.472;7.850;2022-07-09T19:26:46;97267.69;;;19.99;80.59
32761;BME280;19126;47.472;7.850;2022-07-09T19:29:13;97272.03;;;19.86;81.17
32761;BME280;19126;47.472;7.850;2022-07-09T19:31:40;97268.25;;;19.75;83.64
32761;BME280;19126;47.472;7.850;2022-07-09T19:34:26;97266.72;;;19.61;83.06
32761;BME280;19126;47.472;7.850;2022-07-09T19:36:53;97269.84;;;19.51;83.49
32761;BME280;19126;47.472;7.850;2022-07-09T19:39:20;97275.66;;;19.41;85.22
32761;BME280;19126;47.472;7.850;2022-07-09T19:41:48;97274.28;;;19.32;85.96
32761;BME280;19126;47.472;7.850;2022-07-09T19:44:15;97274.53;;;19.24;86.02
32761;BME280;19126;47.472;7.850;2022-07-09T19:46:43;97278.06;;;19.17;87.00
32761;BME280;19126;47.472;7.850;2022-07-09T19:49:11;97283.63;;;19.09;88.64
32761;BME280;19126;47.472;7.850;2022-07-09T19:51:40;97288.19;;;19.02;88.29
32761;BME280;19126;47.472;7.850;2022-07-09T19:54:07;97285.31;;;18.90;88.79
32761;BME280;19126;47.472;7.850;2022-07-09T19:56:34;97287.59;;;18.80;89.91
32761;BME280;19126;47.472;7.850;2022-07-09T19:59:02;97288.47;;;18.67;89.98
32761;BME280;19126;47.472;7.850;2022-07-09T20:01:29;97295.88;;;18.58;92.01
32761;BME280;19126;47.472;7.850;2022-07-09T20:03:56;97294.03;;;18.52;92.45
32761;BME280;19126;47.472;7.850;2022-07-09T20:06:24;97301.81;;;18.47;93.48
32761;BME280;19126;47.472;7.850;2022-07-09T20:08:53;97298.75;;;18.43;95.99
32761;BME280;19126;47.472;7.850;2022-07-09T20:11:21;97301.03;;;18.39;96.37
32761;BME280;19126;47.472;7.850;2022-07-09T20:13:49;97302.47;;;18.35;94.70
32761;BME280;19126;47.472;7.850;2022-07-09T20:16:16;97304.50;;;18.26;93.42
32761;BME280;19126;47.472;7.850;2022-07-09T20:18:44;97309.84;;;18.20;96.62
32761;BME280;19126;47.472;7.850;2022-07-09T20:21:11;97306.75;;;18.16;96.26
32761;BME280;19126;47.472;7.850;2022-07-09T20:23:38;97311.09;;;18.10;97.24
32761;BME280;19126;47.472;7.850;2022-07-09T20:26:07;97303.94;;;18.04;97.21
32761;BME280;19126;47.472;7.850;2022-07-09T20:28:34;97313.72;;;17.97;98.12
32761;BME280;19126;47.472;7.850;2022-07-09T20:31:01;97305.53;;;17.92;98.59
32761;BME280;19126;47.472;7.850;2022-07-09T20:33:28;97309.41;;;17.89;97.55
32761;BME280;19126;47.472;7.850;2022-07-09T20:35:55;97297.53;;;17.85;97.77
32761;BME280;19126;47.472;7.850;2022-07-09T20:38:23;97297.16;;;17.81;97.90
32761;BME280;19126;47.472;7.850;2022-07-09T20:40:53;97302.44;;;17.75;100.00
32761;BME280;19126;47.472;7.850;2022-07-09T20:43:22;97301.00;;;17.65;100.00
32761;BME280;19126;47.472;7.850;2022-07-09T20:45:49;97299.38;;;17.57;100.00
32761;BME280;19126;47.472;7.850;2022-07-09T20:48:16;97303.84;;;17.50;100.00
32761;BME280;19126;47.472;7.850;2022-07-09T20:50:43;97307.50;;;17.36;100.00
32761;BME280;19126;47.472;7.850;2022-07-09T20:53:10;97306.28;;;17.32;100.00
32761;BME280;19126;47.472;7.850;2022-07-09T20:55:38;97303.81;;;17.30;100.00
32761;BME280;19126;47.472;7.850;2022-07-09T20:58:05;97301.94;;;17.24;100.00